Главная страница
METAR-TAF:

METAR-TAF

Аэропорты :

Уральск, Казахстан

широта: 51-15N, долгота: 051-17E, высота над уровнем моря: 36 м

Текущие метеонаблюдения

Эта сводка был подготовлена 32 минут назад, в 16:30 UTC
Ветер 6 Узел от юго-восточный
Температура 21°C
Влажность 35%
Давление 1019 hPa
Видимость 10 км и более
Нет облачности ниже 1500 м, и нет кучево-дождевой облачности

METAR: UARR 191630Z 14003MPS CAVOK 21/05 Q1019 R22/CLRD70 NOSIG RMK QFE760/1014

Время: 22:02 (17:02 UTC)

Прогноз

Эта сводка был подготовлена 3 часа и 2 минут назад, в 14:00 UTC
Прогноз действительный с 19-го 15 UTC до 19-го 24 UTC
Ветер 10 Узел от южный
Видимость 10 км и более
Нет облачности ниже 1500 м, и нет кучево-дождевой облачности

TAF: UARR 191400Z 1915/1924 17005MPS CAVOK

Метеонаблюдения и прогнозы для более 4000 аэропортов (сводки METAR и TAF).

Имеющиеся станции представлены на карте желтыми и красными точками.

Чтобы увидеть название станции, наведите на нее мышь.

Затем щелкните, чтобы увидеть метеонаблюдения и метеопрогнозы.

Управление картой: чтобы увеличить масштаб, щелкните зеленые кнопки с черным крестиком; чтобы уменьшить масштаб, щелкните зеленую кнопку с тире; для просмотра соседних карт щелкайте зеленые стрелки.


METAR-TAF: